Fairfield, IA

1:19 PM CST on November 21, 2019 (GMT -0600)
Fairfield Municipal

Weather History for KFFL - September, 2019

Change the Weather History Date:

Tuesday, September 17, 2019

  Actual Average Record
Temperature  
Mean Temperature 76 °F -  
Max Temperature 86 °F 74 °F 91 °F (1988)
Min Temperature 66 °F 53 °F 40 °F (1980)
Cooling Degree Days 11    
Growing Degree Days 26 (Base 50)    
Moisture  
Dew Point 70 °F    
Average Humidity 86    
Maximum Humidity 100    
Minimum Humidity 70    
Precipitation  
Precipitation 0.00 in - - ()
Sea Level Pressure  
Sea Level Pressure 30.07 in    
Wind  
Wind Speed 8 mph (SE)    
Max Wind Speed 14 mph    
Max Gust Speed 18 mph    
Visibility 10 miles    
Events      
Averages and records for this station are not official NWS values.
T = Trace of Precipitation, MM = Missing Value Source: NWS Daily Summary

Daily Weather History Graph

Daily Weather History Graph

Search for Another Location

Airport or City:

Astronomy

Sep. 17, 2019 Rise Set
Actual Time 6:50 AM CDT 7:13 PM CDT
Civil Twilight 6:22 AM CDT 7:41 PM CDT
Nautical Twilight 5:50 AM CDT 8:13 PM CDT
Astronomical Twilight 5:16 AM CDT 8:47 PM CDT
Moon 9:15 PM CDT (9/17) 9:56 AM CDT (9/17)
Length of Visible Light 13h 18m
Length of Day
12h 23m
Waning Gibbous, 89% of the Moon is Illuminated
Sep 17
Waning Gibbous
Sep 21
Last Quarter
Sep 28
New
Oct 5
First Quarter
Oct 13
Full

Hourly Weather History & Observations

Time (CDT) Temp. Heat Index Dew Point Humidity Pressure Visibility Wind Dir Wind Speed Gust Speed Precip Events Conditions
12:15 AM 69.8 °F - 68.0 °F 94% 30.08 in 10.0 mi ESE 8.1 mph - N/A   Clear
12:35 AM 69.8 °F - 68.0 °F 94% 30.07 in 10.0 mi ESE 6.9 mph - N/A   Clear
12:55 AM 69.8 °F - 68.0 °F 94% 30.07 in 10.0 mi ESE 6.9 mph - N/A   Clear
1:15 AM 69.8 °F - 68.0 °F 94% 30.08 in 10.0 mi ESE 6.9 mph - N/A   Clear
1:35 AM 69.8 °F - 68.0 °F 94% 30.08 in 10.0 mi SE 6.9 mph - N/A   Clear
1:55 AM 69.8 °F - 68.0 °F 94% 30.08 in 10.0 mi SE 8.1 mph - N/A   Clear
2:15 AM 69.8 °F - 68.0 °F 94% 30.08 in 10.0 mi SE 8.1 mph - N/A   Clear
2:35 AM 69.8 °F - 68.0 °F 94% 30.08 in 10.0 mi ESE 6.9 mph - N/A   Clear
2:55 AM 69.8 °F - 68.0 °F 94% 30.08 in 10.0 mi SE 6.9 mph - N/A   Clear
3:15 AM 68.0 °F - 68.0 °F 100% 30.08 in 9.0 mi SE 5.8 mph - N/A   Clear
3:35 AM 68.0 °F - 68.0 °F 100% 30.08 in 9.0 mi SE 6.9 mph - N/A   Clear
3:55 AM 68.0 °F - 68.0 °F 100% 30.09 in 9.0 mi SE 6.9 mph - N/A   Clear
4:15 AM 68.0 °F - 68.0 °F 100% 30.09 in 10.0 mi SE 6.9 mph - N/A   Partly Cloudy
4:35 AM 68.0 °F - 68.0 °F 100% 30.09 in 10.0 mi ESE 6.9 mph - N/A   Clear
4:55 AM 68.0 °F - 68.0 °F 100% 30.09 in 10.0 mi ESE 8.1 mph - N/A   Clear
5:15 AM 68.0 °F - 66.2 °F 94% 30.09 in 10.0 mi ESE 5.8 mph - N/A   Clear
5:35 AM 68.0 °F - 66.2 °F 94% 30.09 in 10.0 mi ESE 6.9 mph - N/A   Clear
5:55 AM 66.2 °F - 66.2 °F 100% 30.10 in 10.0 mi ESE 6.9 mph - N/A   Scattered Clouds
6:15 AM 66.2 °F - 66.2 °F 100% 30.10 in 10.0 mi ESE 6.9 mph - N/A   Scattered Clouds
6:35 AM 66.2 °F - 66.2 °F 100% 30.10 in 10.0 mi ESE 5.8 mph - N/A   Clear
6:55 AM 66.2 °F - 66.2 °F 100% 30.10 in 8.0 mi ESE 6.9 mph - N/A   Partly Cloudy
7:35 AM 68.0 °F - 66.2 °F 94% 30.11 in 7.0 mi SE 6.9 mph - N/A   Clear
7:55 AM 68.0 °F - 66.2 °F 94% 30.12 in 8.0 mi ESE 9.2 mph - N/A   Clear
8:15 AM 68.0 °F - 68.0 °F 100% 30.11 in 8.0 mi ESE 8.1 mph - N/A   Clear
8:35 AM 69.8 °F - 68.0 °F 94% 30.12 in 9.0 mi SE 9.2 mph - N/A   Clear
8:55 AM 71.6 °F - 68.0 °F 88% 30.11 in 10.0 mi SE 9.2 mph - N/A   Clear
9:15 AM 73.4 °F - 69.8 °F 88% 30.11 in 10.0 mi SE 10.4 mph - N/A   Clear
9:55 AM 75.2 °F - 69.8 °F 83% 30.11 in 10.0 mi SE 9.2 mph - N/A   Clear
10:15 AM 75.2 °F - 69.8 °F 83% 30.11 in 10.0 mi ESE 11.5 mph - N/A   Clear
10:35 AM 75.2 °F - 69.8 °F 83% 30.11 in 10.0 mi ESE 12.7 mph - N/A   Clear
10:55 AM 77.0 °F - 71.6 °F 83% 30.11 in 10.0 mi ESE 13.8 mph - N/A   Clear
11:15 AM 78.8 °F - 71.6 °F 78% 30.11 in 10.0 mi SSE 12.7 mph - N/A   Clear
11:35 AM 80.6 °F 84.6 °F 71.6 °F 74% 30.10 in 10.0 mi SE 10.4 mph - N/A   Clear
11:55 AM 80.6 °F 84.6 °F 71.6 °F 74% 30.10 in 10.0 mi SSE 10.4 mph - N/A   Clear
12:15 PM 82.4 °F 87.2 °F 71.6 °F 70% 30.09 in 10.0 mi SE 11.5 mph - N/A   Clear
12:35 PM 82.4 °F 87.2 °F 71.6 °F 70% 30.09 in 10.0 mi SSE 11.5 mph - N/A   Clear
12:55 PM 82.4 °F 88.2 °F 73.4 °F 74% 30.08 in 10.0 mi SSE 11.5 mph - N/A   Clear
1:15 PM 84.2 °F 90.9 °F 73.4 °F 70% 30.08 in 10.0 mi SE 9.2 mph - N/A   Clear
1:35 PM 84.2 °F 90.9 °F 73.4 °F 70% 30.07 in 10.0 mi SE 11.5 mph - N/A   Clear
1:55 PM 84.2 °F 90.9 °F 73.4 °F 70% 30.06 in 10.0 mi SE 12.7 mph 18.4 mph N/A   Clear
2:15 PM 82.4 °F 88.2 °F 73.4 °F 74% 30.06 in 10.0 mi SE 11.5 mph - N/A   Clear
2:35 PM 82.4 °F 88.2 °F 73.4 °F 74% 30.06 in 10.0 mi SE 10.4 mph - N/A   Clear
2:55 PM 82.4 °F 88.2 °F 73.4 °F 74% 30.05 in 10.0 mi SE 10.4 mph - N/A   Clear
3:15 PM 84.2 °F 90.9 °F 73.4 °F 70% 30.05 in 10.0 mi ESE 10.4 mph - N/A   Clear
3:35 PM 84.2 °F 90.9 °F 73.4 °F 70% 30.04 in 10.0 mi ESE 12.7 mph - N/A   Clear
3:55 PM 86.0 °F 95.1 °F 75.2 °F 70% 30.03 in 10.0 mi ESE 10.4 mph - N/A   Clear
4:15 PM 84.2 °F 92.3 °F 75.2 °F 74% 30.03 in 10.0 mi SE 10.4 mph - N/A   Clear
4:35 PM 84.2 °F 90.9 °F 73.4 °F 70% 30.03 in 10.0 mi SE 13.8 mph - N/A   Clear
4:55 PM 84.2 °F 90.9 °F 73.4 °F 70% 30.02 in 10.0 mi SE 12.7 mph - N/A   Clear
5:15 PM 84.2 °F 90.9 °F 73.4 °F 70% 30.02 in 10.0 mi ESE 12.7 mph - N/A   Clear
5:35 PM 82.4 °F 88.2 °F 73.4 °F 74% 30.02 in 10.0 mi SE 11.5 mph - N/A   Clear
5:55 PM 82.4 °F 88.2 °F 73.4 °F 74% 30.02 in 10.0 mi SE 11.5 mph 17.3 mph N/A   Clear
6:15 PM 80.6 °F 85.4 °F 73.4 °F 79% 30.02 in 10.0 mi SE 11.5 mph 17.3 mph N/A   Clear
6:35 PM 80.6 °F 85.4 °F 73.4 °F 79% 30.01 in 10.0 mi ESE 9.2 mph - N/A   Clear
6:55 PM 78.8 °F - 71.6 °F 78% 30.02 in 10.0 mi ESE 8.1 mph - N/A   Clear
7:15 PM 77.0 °F - 71.6 °F 83% 30.02 in 10.0 mi ESE 9.2 mph - N/A   Clear
7:35 PM 75.2 °F - 69.8 °F 83% 30.01 in 10.0 mi ESE 6.9 mph - N/A   Clear
7:55 PM 73.4 °F - 69.8 °F 88% 30.02 in 10.0 mi ESE 6.9 mph - N/A   Clear
8:15 PM 73.4 °F - 68.0 °F 83% 30.02 in 10.0 mi ESE 8.1 mph - N/A   Clear
8:55 PM 71.6 °F - 68.0 °F 88% 30.03 in 10.0 mi ESE 6.9 mph - N/A   Clear
9:15 PM 71.6 °F - 68.0 °F 88% 30.03 in 10.0 mi ESE 5.8 mph - N/A   Partly Cloudy
9:35 PM 71.6 °F - 68.0 °F 88% 30.03 in 10.0 mi ESE 8.1 mph - N/A   Partly Cloudy
9:55 PM 71.6 °F - 68.0 °F 88% 30.03 in 10.0 mi ESE 6.9 mph - N/A   Scattered Clouds
10:15 PM 69.8 °F - 68.0 °F 94% 30.03 in 10.0 mi ESE 5.8 mph - N/A   Scattered Clouds
10:35 PM 71.6 °F - 69.8 °F 94% 30.03 in 10.0 mi SE 8.1 mph - N/A   Scattered Clouds
10:55 PM 71.6 °F - 69.8 °F 94% 30.04 in 10.0 mi SE 8.1 mph - N/A   Partly Cloudy
11:15 PM 71.6 °F - 69.8 °F 94% 30.03 in 10.0 mi SE 8.1 mph - N/A   Clear
11:35 PM 71.6 °F - 69.8 °F 94% 30.03 in 10.0 mi SE 9.2 mph - N/A   Partly Cloudy
11:55 PM 71.6 °F - 69.8 °F 94% 30.03 in 10.0 mi SE 8.1 mph - N/A   Clear